Nicholasville, Kentucky
Current Conditions -  °F | °C
As of 3:45 PM on Saturday 25 Oct 2014 (Local Time) from KLEX Reporting Station
Broken Clouds Broken Clouds  
Wind Chill: 72°   Ceiling: 2800
Heat Index: 72°   Visibility: 10mi
Dew Point: 58°   Wind: 7mph
Humidity: 61%   Direction: 260°W
Pressure: 29.97"   Gusts: NA
Location:  37.89°N, 84.57°W
Report Text: KLEX 251945Z 26006KT 10SM BKN028 BKN034 22/14 A2997 RMK AO2 T02220144
Loading
Personal Weather Stations






























Interactive Weather Map New forecast layout! Learn more

10-Day Weather Forecast

Advertisements
Track Severe Weather on mobile